sensor_id;sensor_type;location;lat;lon;timestamp;temperature;humidity
33803;DHT22;20110;53.120;5.786;2023-08-12T00:01:52;17.00;99.90
33803;DHT22;20110;53.120;5.786;2023-08-12T00:04:18;17.00;99.90
33803;DHT22;20110;53.120;5.786;2023-08-12T00:06:43;17.00;99.90
33803;DHT22;20110;53.120;5.786;2023-08-12T00:09:09;16.90;99.90
33803;DHT22;20110;53.120;5.786;2023-08-12T00:11:37;17.00;99.90
33803;DHT22;20110;53.120;5.786;2023-08-12T00:14:04;16.90;99.90
33803;DHT22;20110;53.120;5.786;2023-08-12T00:16:30;16.90;99.90
33803;DHT22;20110;53.120;5.786;2023-08-12T00:18:56;16.90;99.90
33803;DHT22;20110;53.120;5.786;2023-08-12T00:21:22;16.80;99.90
33803;DHT22;20110;53.120;5.786;2023-08-12T00:23:47;16.80;99.90
33803;DHT22;20110;53.120;5.786;2023-08-12T00:26:15;16.80;99.90
33803;DHT22;20110;53.120;5.786;2023-08-12T00:28:41;16.70;99.90
33803;DHT22;20110;53.120;5.786;2023-08-12T00:31:07;16.70;99.90
33803;DHT22;20110;53.120;5.786;2023-08-12T00:33:33;16.70;99.90
33803;DHT22;20110;53.120;5.786;2023-08-12T00:35:59;16.60;99.90
33803;DHT22;20110;53.120;5.786;2023-08-12T00:38:25;16.70;99.90
33803;DHT22;20110;53.120;5.786;2023-08-12T00:40:51;16.60;99.90
33803;DHT22;20110;53.120;5.786;2023-08-12T00:43:17;16.70;99.90
33803;DHT22;20110;53.120;5.786;2023-08-12T00:45:43;16.60;99.90
33803;DHT22;20110;53.120;5.786;2023-08-12T00:48:10;16.70;99.90
33803;DHT22;20110;53.120;5.786;2023-08-12T00:50:37;16.70;99.90
33803;DHT22;20110;53.120;5.786;2023-08-12T00:53:04;16.60;99.90
33803;DHT22;20110;53.120;5.786;2023-08-12T00:55:34;16.60;99.90
33803;DHT22;20110;53.120;5.786;2023-08-12T00:58:00;16.70;99.90
33803;DHT22;20110;53.120;5.786;2023-08-12T01:00:28;16.70;99.90
33803;DHT22;20110;53.120;5.786;2023-08-12T01:02:54;16.70;99.90
33803;DHT22;20110;53.120;5.786;2023-08-12T01:05:22;16.60;99.90
33803;DHT22;20110;53.120;5.786;2023-08-12T01:07:48;16.60;99.90
33803;DHT22;20110;53.120;5.786;2023-08-12T01:10:14;16.40;99.90
33803;DHT22;20110;53.120;5.786;2023-08-12T01:15:24;16.30;99.90
33803;DHT22;20110;53.120;5.786;2023-08-12T01:17:53;16.30;99.90
33803;DHT22;20110;53.120;5.786;2023-08-12T01:20:23;16.30;99.90
33803;DHT22;20110;53.120;5.786;2023-08-12T01:23:13;16.30;99.90
33803;DHT22;20110;53.120;5.786;2023-08-12T01:25:40;16.30;99.90
33803;DHT22;20110;53.120;5.786;2023-08-12T01:28:07;16.30;99.90
33803;DHT22;20110;53.120;5.786;2023-08-12T01:30:38;16.20;99.90
33803;DHT22;20110;53.120;5.786;2023-08-12T01:33:28;16.20;99.90
33803;DHT22;20110;53.120;5.786;2023-08-12T01:36:16;16.20;99.90
33803;DHT22;20110;53.120;5.786;2023-08-12T01:38:44;16.00;99.90
33803;DHT22;20110;53.120;5.786;2023-08-12T01:41:13;16.00;99.90
33803;DHT22;20110;53.120;5.786;2023-08-12T01:43:41;16.00;99.90
33803;DHT22;20110;53.120;5.786;2023-08-12T01:46:07;16.00;99.90
33803;DHT22;20110;53.120;5.786;2023-08-12T01:48:34;16.10;99.90
33803;DHT22;20110;53.120;5.786;2023-08-12T01:51:00;16.10;99.90
33803;DHT22;20110;53.120;5.786;2023-08-12T01:53:26;16.10;99.90
33803;DHT22;20110;53.120;5.786;2023-08-12T01:55:52;16.20;99.90
33803;DHT22;20110;53.120;5.786;2023-08-12T01:58:18;16.30;99.90
33803;DHT22;20110;53.120;5.786;2023-08-12T02:00:44;16.30;99.90
33803;DHT22;20110;53.120;5.786;2023-08-12T02:03:09;16.40;99.90
33803;DHT22;20110;53.120;5.786;2023-08-12T02:05:35;16.40;99.90
33803;DHT22;20110;53.120;5.786;2023-08-12T02:08:06;16.40;99.90
33803;DHT22;20110;53.120;5.786;2023-08-12T02:10:32;16.40;99.90
33803;DHT22;20110;53.120;5.786;2023-08-12T02:12:58;16.40;99.90
33803;DHT22;20110;53.120;5.786;2023-08-12T02:15:23;16.40;99.90
33803;DHT22;20110;53.120;5.786;2023-08-12T02:17:49;16.30;99.90
33803;DHT22;20110;53.120;5.786;2023-08-12T02:20:15;16.30;99.90
33803;DHT22;20110;53.120;5.786;2023-08-12T02:22:41;16.30;99.90
33803;DHT22;20110;53.120;5.786;2023-08-12T02:25:07;16.30;99.90
33803;DHT22;20110;53.120;5.786;2023-08-12T02:27:33;16.40;99.90
33803;DHT22;20110;53.120;5.786;2023-08-12T02:29:59;16.40;99.90
33803;DHT22;20110;53.120;5.786;2023-08-12T02:32:25;16.40;99.90
33803;DHT22;20110;53.120;5.786;2023-08-12T02:34:51;16.40;99.90
33803;DHT22;20110;53.120;5.786;2023-08-12T02:37:16;16.50;99.90
33803;DHT22;20110;53.120;5.786;2023-08-12T02:39:42;16.50;99.90
33803;DHT22;20110;53.120;5.786;2023-08-12T02:42:08;16.50;99.90
33803;DHT22;20110;53.120;5.786;2023-08-12T02:44:34;16.60;99.90
33803;DHT22;20110;53.120;5.786;2023-08-12T02:46:59;16.60;99.90
33803;DHT22;20110;53.120;5.786;2023-08-12T02:49:25;16.70;99.90
33803;DHT22;20110;53.120;5.786;2023-08-12T02:51:51;16.70;99.90
33803;DHT22;20110;53.120;5.786;2023-08-12T02:54:17;16.70;99.90
33803;DHT22;20110;53.120;5.786;2023-08-12T02:56:43;16.70;99.90
33803;DHT22;20110;53.120;5.786;2023-08-12T02:59:09;16.70;99.90
33803;DHT22;20110;53.120;5.786;2023-08-12T03:01:35;16.80;99.90
33803;DHT22;20110;53.120;5.786;2023-08-12T03:04:01;16.70;99.90
33803;DHT22;20110;53.120;5.786;2023-08-12T03:06:27;16.70;99.90
33803;DHT22;20110;53.120;5.786;2023-08-12T03:08:53;16.60;99.90
33803;DHT22;20110;53.120;5.786;2023-08-12T03:11:19;16.60;99.90
33803;DHT22;20110;53.120;5.786;2023-08-12T03:13:45;16.60;99.90
33803;DHT22;20110;53.120;5.786;2023-08-12T03:16:12;16.70;99.90
33803;DHT22;20110;53.120;5.786;2023-08-12T03:18:41;16.70;99.90
33803;DHT22;20110;53.120;5.786;2023-08-12T03:21:08;16.70;99.90
33803;DHT22;20110;53.120;5.786;2023-08-12T03:23:37;16.80;99.90
33803;DHT22;20110;53.120;5.786;2023-08-12T03:26:05;16.80;99.90
33803;DHT22;20110;53.120;5.786;2023-08-12T03:28:31;16.80;99.90
33803;DHT22;20110;53.120;5.786;2023-08-12T03:30:57;16.80;99.90
33803;DHT22;20110;53.120;5.786;2023-08-12T03:33:23;16.80;99.90
33803;DHT22;20110;53.120;5.786;2023-08-12T03:35:49;16.80;99.90
33803;DHT22;20110;53.120;5.786;2023-08-12T03:38:15;16.80;99.90
33803;DHT22;20110;53.120;5.786;2023-08-12T03:40:41;16.80;99.90
33803;DHT22;20110;53.120;5.786;2023-08-12T03:43:08;16.80;99.90
33803;DHT22;20110;53.120;5.786;2023-08-12T03:45:40;16.80;99.90
33803;DHT22;20110;53.120;5.786;2023-08-12T03:48:07;16.90;99.90
33803;DHT22;20110;53.120;5.786;2023-08-12T03:50:40;16.90;99.90
33803;DHT22;20110;53.120;5.786;2023-08-12T03:53:07;16.80;99.90
33803;DHT22;20110;53.120;5.786;2023-08-12T03:55:34;16.90;99.90
33803;DHT22;20110;53.120;5.786;2023-08-12T03:58:00;16.90;99.90
33803;DHT22;20110;53.120;5.786;2023-08-12T04:00:27;16.90;99.90
33803;DHT22;20110;53.120;5.786;2023-08-12T04:02:54;16.90;99.90
33803;DHT22;20110;53.120;5.786;2023-08-12T04:05:19;17.00;99.90
33803;DHT22;20110;53.120;5.786;2023-08-12T04:07:45;17.00;99.90
33803;DHT22;20110;53.120;5.786;2023-08-12T04:10:11;17.00;99.90
33803;DHT22;20110;53.120;5.786;2023-08-12T04:12:37;17.00;99.90
33803;DHT22;20110;53.120;5.786;2023-08-12T04:15:03;17.00;99.90
33803;DHT22;20110;53.120;5.786;2023-08-12T04:17:30;17.00;99.90
33803;DHT22;20110;53.120;5.786;2023-08-12T04:19:56;17.10;99.90
33803;DHT22;20110;53.120;5.786;2023-08-12T04:22:22;17.10;99.90
33803;DHT22;20110;53.120;5.786;2023-08-12T04:24:47;17.10;99.90
33803;DHT22;20110;53.120;5.786;2023-08-12T04:27:13;17.10;99.90
33803;DHT22;20110;53.120;5.786;2023-08-12T04:29:41;17.10;99.90
33803;DHT22;20110;53.120;5.786;2023-08-12T04:32:08;17.10;99.90
33803;DHT22;20110;53.120;5.786;2023-08-12T04:34:34;17.10;99.90
33803;DHT22;20110;53.120;5.786;2023-08-12T04:36:59;17.20;99.90
33803;DHT22;20110;53.120;5.786;2023-08-12T04:39:25;17.20;99.90
33803;DHT22;20110;53.120;5.786;2023-08-12T04:41:51;17.20;99.90
33803;DHT22;20110;53.120;5.786;2023-08-12T04:44:17;17.20;99.90
33803;DHT22;20110;53.120;5.786;2023-08-12T04:46:43;17.20;99.90
33803;DHT22;20110;53.120;5.786;2023-08-12T04:49:09;17.20;99.90
33803;DHT22;20110;53.120;5.786;2023-08-12T04:51:34;17.20;99.90
33803;DHT22;20110;53.120;5.786;2023-08-12T04:54:00;17.30;99.90
33803;DHT22;20110;53.120;5.786;2023-08-12T04:56:27;17.30;99.90
33803;DHT22;20110;53.120;5.786;2023-08-12T04:58:56;17.40;99.90
33803;DHT22;20110;53.120;5.786;2023-08-12T05:01:22;17.50;99.90
33803;DHT22;20110;53.120;5.786;2023-08-12T05:03:47;17.50;99.90
33803;DHT22;20110;53.120;5.786;2023-08-12T05:06:13;17.50;99.90
33803;DHT22;20110;53.120;5.786;2023-08-12T05:08:39;17.60;99.90
33803;DHT22;20110;53.120;5.786;2023-08-12T05:11:05;17.70;99.90
33803;DHT22;20110;53.120;5.786;2023-08-12T05:13:31;17.80;99.90
33803;DHT22;20110;53.120;5.786;2023-08-12T05:15:56;17.90;99.90
33803;DHT22;20110;53.120;5.786;2023-08-12T05:18:22;17.80;99.90
33803;DHT22;20110;53.120;5.786;2023-08-12T05:20:50;17.90;99.90
33803;DHT22;20110;53.120;5.786;2023-08-12T05:23:16;18.00;99.90
33803;DHT22;20110;53.120;5.786;2023-08-12T05:25:42;17.90;99.90
33803;DHT22;20110;53.120;5.786;2023-08-12T05:28:08;17.90;99.90
33803;DHT22;20110;53.120;5.786;2023-08-12T05:30:34;18.00;99.90
33803;DHT22;20110;53.120;5.786;2023-08-12T05:33:01;17.80;99.90
33803;DHT22;20110;53.120;5.786;2023-08-12T05:35:27;18.00;99.90
33803;DHT22;20110;53.120;5.786;2023-08-12T05:37:53;18.00;99.90
33803;DHT22;20110;53.120;5.786;2023-08-12T05:40:19;18.00;99.90
33803;DHT22;20110;53.120;5.786;2023-08-12T05:42:45;18.00;99.90
33803;DHT22;20110;53.120;5.786;2023-08-12T05:45:11;17.90;99.90
33803;DHT22;20110;53.120;5.786;2023-08-12T05:47:37;18.00;99.90
33803;DHT22;20110;53.120;5.786;2023-08-12T05:50:03;18.00;99.90
33803;DHT22;20110;53.120;5.786;2023-08-12T05:52:29;17.90;99.90
33803;DHT22;20110;53.120;5.786;2023-08-12T05:54:54;17.90;99.90
33803;DHT22;20110;53.120;5.786;2023-08-12T05:57:20;17.90;99.90
33803;DHT22;20110;53.120;5.786;2023-08-12T05:59:46;18.00;99.90
33803;DHT22;20110;53.120;5.786;2023-08-12T06:02:12;18.00;99.90
33803;DHT22;20110;53.120;5.786;2023-08-12T06:04:37;18.00;99.90
33803;DHT22;20110;53.120;5.786;2023-08-12T06:07:03;17.90;99.90
33803;DHT22;20110;53.120;5.786;2023-08-12T06:09:29;17.80;99.90
33803;DHT22;20110;53.120;5.786;2023-08-12T06:11:55;17.90;99.90
33803;DHT22;20110;53.120;5.786;2023-08-12T06:14:21;17.90;99.90
33803;DHT22;20110;53.120;5.786;2023-08-12T06:16:46;17.90;99.90
33803;DHT22;20110;53.120;5.786;2023-08-12T06:19:12;17.90;99.90
33803;DHT22;20110;53.120;5.786;2023-08-12T06:21:38;17.90;99.90
33803;DHT22;20110;53.120;5.786;2023-08-12T06:24:04;18.00;99.90
33803;DHT22;20110;53.120;5.786;2023-08-12T06:26:30;18.00;99.90
33803;DHT22;20110;53.120;5.786;2023-08-12T06:28:56;18.00;99.90
33803;DHT22;20110;53.120;5.786;2023-08-12T06:31:23;18.00;99.90
33803;DHT22;20110;53.120;5.786;2023-08-12T06:33:48;18.10;99.90
33803;DHT22;20110;53.120;5.786;2023-08-12T06:36:14;18.10;99.90
33803;DHT22;20110;53.120;5.786;2023-08-12T06:38:40;18.20;99.90
33803;DHT22;20110;53.120;5.786;2023-08-12T06:41:06;18.30;99.90
33803;DHT22;20110;53.120;5.786;2023-08-12T06:43:32;18.30;99.90
33803;DHT22;20110;53.120;5.786;2023-08-12T06:45:57;18.30;99.90
33803;DHT22;20110;53.120;5.786;2023-08-12T06:48:23;18.40;99.90
33803;DHT22;20110;53.120;5.786;2023-08-12T06:50:56;18.40;99.90
33803;DHT22;20110;53.120;5.786;2023-08-12T06:53:22;18.30;99.90
33803;DHT22;20110;53.120;5.786;2023-08-12T06:55:50;18.30;99.90
33803;DHT22;20110;53.120;5.786;2023-08-12T06:58:17;18.30;99.90
33803;DHT22;20110;53.120;5.786;2023-08-12T07:00:43;18.40;99.90
33803;DHT22;20110;53.120;5.786;2023-08-12T07:03:09;18.40;99.90
33803;DHT22;20110;53.120;5.786;2023-08-12T07:05:35;18.40;99.90
33803;DHT22;20110;53.120;5.786;2023-08-12T07:08:00;18.30;99.90
33803;DHT22;20110;53.120;5.786;2023-08-12T07:10:26;18.50;99.90
33803;DHT22;20110;53.120;5.786;2023-08-12T07:12:58;18.50;99.90
33803;DHT22;20110;53.120;5.786;2023-08-12T07:15:24;18.50;99.90
33803;DHT22;20110;53.120;5.786;2023-08-12T07:17:50;18.50;99.90
33803;DHT22;20110;53.120;5.786;2023-08-12T07:20:15;18.50;99.90
33803;DHT22;20110;53.120;5.786;2023-08-12T07:22:41;18.40;99.90
33803;DHT22;20110;53.120;5.786;2023-08-12T07:25:07;18.40;99.90
33803;DHT22;20110;53.120;5.786;2023-08-12T07:27:35;18.30;99.90
33803;DHT22;20110;53.120;5.786;2023-08-12T07:30:01;18.40;99.90
33803;DHT22;20110;53.120;5.786;2023-08-12T07:32:27;18.40;99.90
33803;DHT22;20110;53.120;5.786;2023-08-12T07:34:52;18.40;99.90
33803;DHT22;20110;53.120;5.786;2023-08-12T07:37:18;18.40;99.90
33803;DHT22;20110;53.120;5.786;2023-08-12T07:39:44;18.40;99.90
33803;DHT22;20110;53.120;5.786;2023-08-12T07:42:10;18.40;99.90
33803;DHT22;20110;53.120;5.786;2023-08-12T07:44:36;18.40;99.90
33803;DHT22;20110;53.120;5.786;2023-08-12T07:47:01;18.20;99.90
33803;DHT22;20110;53.120;5.786;2023-08-12T07:49:27;18.30;99.90
33803;DHT22;20110;53.120;5.786;2023-08-12T07:51:53;18.20;99.90
33803;DHT22;20110;53.120;5.786;2023-08-12T07:54:19;18.10;99.90
33803;DHT22;20110;53.120;5.786;2023-08-12T07:56:45;18.10;99.90
33803;DHT22;20110;53.120;5.786;2023-08-12T07:59:10;17.90;99.90
33803;DHT22;20110;53.120;5.786;2023-08-12T08:01:36;17.90;99.90
33803;DHT22;20110;53.120;5.786;2023-08-12T08:04:02;17.90;99.90
33803;DHT22;20110;53.120;5.786;2023-08-12T08:06:28;17.90;99.90
33803;DHT22;20110;53.120;5.786;2023-08-12T08:08:54;18.00;99.90
33803;DHT22;20110;53.120;5.786;2023-08-12T08:11:21;18.00;99.90
33803;DHT22;20110;53.120;5.786;2023-08-12T08:13:47;18.00;99.90
33803;DHT22;20110;53.120;5.786;2023-08-12T08:16:12;18.00;99.90
33803;DHT22;20110;53.120;5.786;2023-08-12T08:18:38;18.00;99.90
33803;DHT22;20110;53.120;5.786;2023-08-12T08:21:04;17.90;99.90
33803;DHT22;20110;53.120;5.786;2023-08-12T08:23:30;18.00;99.90
33803;DHT22;20110;53.120;5.786;2023-08-12T08:25:56;17.90;99.90
33803;DHT22;20110;53.120;5.786;2023-08-12T08:28:21;17.90;99.90
33803;DHT22;20110;53.120;5.786;2023-08-12T08:30:48;17.80;99.90
33803;DHT22;20110;53.120;5.786;2023-08-12T08:33:14;17.90;99.90
33803;DHT22;20110;53.120;5.786;2023-08-12T08:35:41;18.00;99.90
33803;DHT22;20110;53.120;5.786;2023-08-12T08:38:06;17.90;99.90
33803;DHT22;20110;53.120;5.786;2023-08-12T08:40:33;17.90;99.90
33803;DHT22;20110;53.120;5.786;2023-08-12T08:43:02;17.90;99.90
33803;DHT22;20110;53.120;5.786;2023-08-12T08:45:32;18.00;99.90
33803;DHT22;20110;53.120;5.786;2023-08-12T08:48:00;18.00;99.90
33803;DHT22;20110;53.120;5.786;2023-08-12T08:50:30;18.00;99.90
33803;DHT22;20110;53.120;5.786;2023-08-12T08:52:57;17.90;99.90
33803;DHT22;20110;53.120;5.786;2023-08-12T08:55:25;17.90;99.90
33803;DHT22;20110;53.120;5.786;2023-08-12T08:57:51;17.80;99.90
33803;DHT22;20110;53.120;5.786;2023-08-12T09:00:18;17.80;99.90
33803;DHT22;20110;53.120;5.786;2023-08-12T09:02:49;17.80;99.90
33803;DHT22;20110;53.120;5.786;2023-08-12T09:05:22;17.80;99.90
33803;DHT22;20110;53.120;5.786;2023-08-12T09:07:49;17.80;99.90
33803;DHT22;20110;53.120;5.786;2023-08-12T09:10:20;17.70;99.90
33803;DHT22;20110;53.120;5.786;2023-08-12T09:12:47;17.70;99.90
33803;DHT22;20110;53.120;5.786;2023-08-12T09:15:13;17.60;99.90
33803;DHT22;20110;53.120;5.786;2023-08-12T09:17:41;17.40;99.90
33803;DHT22;20110;53.120;5.786;2023-08-12T09:20:07;17.00;99.90
33803;DHT22;20110;53.120;5.786;2023-08-12T09:22:37;16.50;99.90
33803;DHT22;20110;53.120;5.786;2023-08-12T09:25:07;16.40;99.90
33803;DHT22;20110;53.120;5.786;2023-08-12T09:27:36;16.70;99.90
33803;DHT22;20110;53.120;5.786;2023-08-12T09:30:05;16.90;99.90
33803;DHT22;20110;53.120;5.786;2023-08-12T09:32:33;17.50;99.90
33803;DHT22;20110;53.120;5.786;2023-08-12T09:35:00;17.70;99.90
33803;DHT22;20110;53.120;5.786;2023-08-12T09:37:28;17.80;99.90
33803;DHT22;20110;53.120;5.786;2023-08-12T09:39:54;17.70;99.90
33803;DHT22;20110;53.120;5.786;2023-08-12T09:42:22;17.40;99.90
33803;DHT22;20110;53.120;5.786;2023-08-12T09:44:47;16.70;99.90
33803;DHT22;20110;53.120;5.786;2023-08-12T09:47:13;16.70;99.90
33803;DHT22;20110;53.120;5.786;2023-08-12T09:49:40;16.60;99.90
33803;DHT22;20110;53.120;5.786;2023-08-12T09:52:07;16.60;99.90
33803;DHT22;20110;53.120;5.786;2023-08-12T09:54:37;16.60;99.90
33803;DHT22;20110;53.120;5.786;2023-08-12T09:57:04;16.50;99.90
33803;DHT22;20110;53.120;5.786;2023-08-12T09:59:34;16.30;99.90
33803;DHT22;20110;53.120;5.786;2023-08-12T10:02:02;15.90;99.90
33803;DHT22;20110;53.120;5.786;2023-08-12T10:04:41;15.50;99.90
33803;DHT22;20110;53.120;5.786;2023-08-12T10:07:10;15.30;99.90
33803;DHT22;20110;53.120;5.786;2023-08-12T10:09:39;15.20;99.90
33803;DHT22;20110;53.120;5.786;2023-08-12T10:12:06;15.30;99.90
33803;DHT22;20110;53.120;5.786;2023-08-12T10:14:33;15.30;99.90
33803;DHT22;20110;53.120;5.786;2023-08-12T10:16:59;15.50;99.90
33803;DHT22;20110;53.120;5.786;2023-08-12T10:19:26;15.50;99.90
33803;DHT22;20110;53.120;5.786;2023-08-12T10:21:55;15.30;99.90
33803;DHT22;20110;53.120;5.786;2023-08-12T10:24:28;15.40;99.90
33803;DHT22;20110;53.120;5.786;2023-08-12T10:26:54;15.40;99.90
33803;DHT22;20110;53.120;5.786;2023-08-12T10:29:22;15.50;99.90
33803;DHT22;20110;53.120;5.786;2023-08-12T10:31:50;15.60;99.90
33803;DHT22;20110;53.120;5.786;2023-08-12T10:34:23;15.50;99.90
33803;DHT22;20110;53.120;5.786;2023-08-12T10:36:55;15.70;99.90
33803;DHT22;20110;53.120;5.786;2023-08-12T10:39:26;15.80;99.90
33803;DHT22;20110;53.120;5.786;2023-08-12T10:41:57;15.80;99.90
33803;DHT22;20110;53.120;5.786;2023-08-12T10:44:37;15.90;99.90
33803;DHT22;20110;53.120;5.786;2023-08-12T10:47:10;15.90;99.90
33803;DHT22;20110;53.120;5.786;2023-08-12T10:49:44;16.00;99.90
33803;DHT22;20110;53.120;5.786;2023-08-12T10:52:27;16.10;99.90
33803;DHT22;20110;53.120;5.786;2023-08-12T10:54:54;16.00;99.90
33803;DHT22;20110;53.120;5.786;2023-08-12T10:57:36;16.10;99.90
33803;DHT22;20110;53.120;5.786;2023-08-12T11:00:11;16.20;99.90
33803;DHT22;20110;53.120;5.786;2023-08-12T11:02:39;16.30;99.90
33803;DHT22;20110;53.120;5.786;2023-08-12T11:05:13;16.30;99.90
33803;DHT22;20110;53.120;5.786;2023-08-12T11:07:57;16.20;99.90
33803;DHT22;20110;53.120;5.786;2023-08-12T11:10:26;16.30;99.90
33803;DHT22;20110;53.120;5.786;2023-08-12T11:12:57;16.40;99.90
33803;DHT22;20110;53.120;5.786;2023-08-12T11:15:40;16.40;99.90
33803;DHT22;20110;53.120;5.786;2023-08-12T11:18:10;16.70;99.90
33803;DHT22;20110;53.120;5.786;2023-08-12T11:20:38;16.80;99.90
33803;DHT22;20110;53.120;5.786;2023-08-12T11:23:05;17.00;99.90
33803;DHT22;20110;53.120;5.786;2023-08-12T11:25:33;16.80;99.90
33803;DHT22;20110;53.120;5.786;2023-08-12T11:28:00;16.50;99.90
33803;DHT22;20110;53.120;5.786;2023-08-12T11:30:27;16.50;99.90
33803;DHT22;20110;53.120;5.786;2023-08-12T11:32:54;16.50;99.90
33803;DHT22;20110;53.120;5.786;2023-08-12T11:35:23;16.60;99.90
33803;DHT22;20110;53.120;5.786;2023-08-12T11:37:55;16.60;99.90
33803;DHT22;20110;53.120;5.786;2023-08-12T11:40:24;16.50;99.90
33803;DHT22;20110;53.120;5.786;2023-08-12T11:42:52;16.60;99.90
33803;DHT22;20110;53.120;5.786;2023-08-12T11:45:21;16.70;99.90
33803;DHT22;20110;53.120;5.786;2023-08-12T11:47:49;16.90;99.90
33803;DHT22;20110;53.120;5.786;2023-08-12T11:50:23;17.20;99.90
33803;DHT22;20110;53.120;5.786;2023-08-12T11:52:53;17.80;99.90
33803;DHT22;20110;53.120;5.786;2023-08-12T11:55:21;18.00;99.90
33803;DHT22;20110;53.120;5.786;2023-08-12T11:57:48;18.10;99.90
33803;DHT22;20110;53.120;5.786;2023-08-12T12:00:15;18.20;99.90
33803;DHT22;20110;53.120;5.786;2023-08-12T12:02:48;18.40;99.90
33803;DHT22;20110;53.120;5.786;2023-08-12T12:05:17;19.10;99.90
33803;DHT22;20110;53.120;5.786;2023-08-12T12:07:44;19.40;99.90
33803;DHT22;20110;53.120;5.786;2023-08-12T12:10:13;20.00;99.90
33803;DHT22;20110;53.120;5.786;2023-08-12T12:12:45;20.80;99.90
33803;DHT22;20110;53.120;5.786;2023-08-12T12:15:13;21.00;99.90
33803;DHT22;20110;53.120;5.786;2023-08-12T12:17:40;21.30;99.90
33803;DHT22;20110;53.120;5.786;2023-08-12T12:20:07;21.60;99.90
33803;DHT22;20110;53.120;5.786;2023-08-12T12:22:37;21.70;99.90
33803;DHT22;20110;53.120;5.786;2023-08-12T12:25:08;21.60;9.60
33803;DHT22;20110;53.120;5.786;2023-08-12T12:27:37;21.80;11.20
33803;DHT22;20110;53.120;5.786;2023-08-12T12:30:08;21.70;99.90
33803;DHT22;20110;53.120;5.786;2023-08-12T12:32:36;21.80;1.00
33803;DHT22;20110;53.120;5.786;2023-08-12T12:35:03;22.20;99.90
33803;DHT22;20110;53.120;5.786;2023-08-12T12:37:29;22.40;99.90
33803;DHT22;20110;53.120;5.786;2023-08-12T12:39:56;22.60;99.90
33803;DHT22;20110;53.120;5.786;2023-08-12T12:42:22;22.70;99.90
33803;DHT22;20110;53.120;5.786;2023-08-12T12:44:48;22.40;99.90
33803;DHT22;20110;53.120;5.786;2023-08-12T12:47:13;22.70;99.90
33803;DHT22;20110;53.120;5.786;2023-08-12T12:49:40;22.20;99.90
33803;DHT22;20110;53.120;5.786;2023-08-12T12:52:09;22.30;99.90
33803;DHT22;20110;53.120;5.786;2023-08-12T12:54:34;22.40;99.90
33803;DHT22;20110;53.120;5.786;2023-08-12T12:57:00;22.50;99.90
33803;DHT22;20110;53.120;5.786;2023-08-12T12:59:27;22.30;99.90
33803;DHT22;20110;53.120;5.786;2023-08-12T13:01:53;22.20;99.90
33803;DHT22;20110;53.120;5.786;2023-08-12T13:04:19;22.30;99.90
33803;DHT22;20110;53.120;5.786;2023-08-12T13:06:45;22.10;99.90
33803;DHT22;20110;53.120;5.786;2023-08-12T13:09:11;22.40;99.90
33803;DHT22;20110;53.120;5.786;2023-08-12T13:11:37;22.30;99.90
33803;DHT22;20110;53.120;5.786;2023-08-12T13:14:03;22.70;99.90
33803;DHT22;20110;53.120;5.786;2023-08-12T13:16:30;22.80;99.90
33803;DHT22;20110;53.120;5.786;2023-08-12T13:18:56;22.80;99.90
33803;DHT22;20110;53.120;5.786;2023-08-12T13:21:26;22.90;99.90
33803;DHT22;20110;53.120;5.786;2023-08-12T13:23:53;22.90;99.90
33803;DHT22;20110;53.120;5.786;2023-08-12T13:26:21;22.50;99.90
33803;DHT22;20110;53.120;5.786;2023-08-12T13:28:47;22.30;99.90
33803;DHT22;20110;53.120;5.786;2023-08-12T13:31:13;22.30;99.90
33803;DHT22;20110;53.120;5.786;2023-08-12T13:33:39;22.10;99.90
33803;DHT22;20110;53.120;5.786;2023-08-12T13:36:05;22.40;99.90
33803;DHT22;20110;53.120;5.786;2023-08-12T13:38:31;22.20;99.90
33803;DHT22;20110;53.120;5.786;2023-08-12T13:40:57;22.10;99.90
33803;DHT22;20110;53.120;5.786;2023-08-12T13:43:22;22.00;99.90
33803;DHT22;20110;53.120;5.786;2023-08-12T13:45:48;22.10;99.90
33803;DHT22;20110;53.120;5.786;2023-08-12T13:48:14;22.30;99.90
33803;DHT22;20110;53.120;5.786;2023-08-12T13:50:41;21.90;99.90
33803;DHT22;20110;53.120;5.786;2023-08-12T13:53:06;21.90;99.90
33803;DHT22;20110;53.120;5.786;2023-08-12T13:55:32;22.10;99.90
33803;DHT22;20110;53.120;5.786;2023-08-12T13:57:58;22.40;99.90
33803;DHT22;20110;53.120;5.786;2023-08-12T14:00:24;22.30;99.90
33803;DHT22;20110;53.120;5.786;2023-08-12T14:02:51;22.50;99.90
33803;DHT22;20110;53.120;5.786;2023-08-12T14:05:17;22.30;99.90
33803;DHT22;20110;53.120;5.786;2023-08-12T14:07:43;21.90;99.90
33803;DHT22;20110;53.120;5.786;2023-08-12T14:10:09;21.80;1.00
33803;DHT22;20110;53.120;5.786;2023-08-12T14:12:35;21.60;1.00
33803;DHT22;20110;53.120;5.786;2023-08-12T14:15:02;21.80;1.00
33803;DHT22;20110;53.120;5.786;2023-08-12T14:17:28;21.90;76.40
33803;DHT22;20110;53.120;5.786;2023-08-12T14:19:54;21.90;99.90
33803;DHT22;20110;53.120;5.786;2023-08-12T14:22:20;22.00;99.90
33803;DHT22;20110;53.120;5.786;2023-08-12T14:24:46;21.50;99.90
33803;DHT22;20110;53.120;5.786;2023-08-12T14:27:14;21.40;99.90
33803;DHT22;20110;53.120;5.786;2023-08-12T14:29:44;21.50;1.00
33803;DHT22;20110;53.120;5.786;2023-08-12T14:32:11;21.40;99.90
33803;DHT22;20110;53.120;5.786;2023-08-12T14:34:37;21.50;99.90
33803;DHT22;20110;53.120;5.786;2023-08-12T14:37:03;21.40;99.90
33803;DHT22;20110;53.120;5.786;2023-08-12T14:39:29;21.30;99.90
33803;DHT22;20110;53.120;5.786;2023-08-12T14:41:57;21.30;99.90
33803;DHT22;20110;53.120;5.786;2023-08-12T14:44:22;21.40;51.90
33803;DHT22;20110;53.120;5.786;2023-08-12T14:46:48;21.50;99.90
33803;DHT22;20110;53.120;5.786;2023-08-12T14:49:14;21.60;99.90
33803;DHT22;20110;53.120;5.786;2023-08-12T14:51:40;21.40;99.90
33803;DHT22;20110;53.120;5.786;2023-08-12T14:54:06;21.30;99.90
33803;DHT22;20110;53.120;5.786;2023-08-12T14:56:33;21.40;99.90
33803;DHT22;20110;53.120;5.786;2023-08-12T14:58:58;21.40;99.90
33803;DHT22;20110;53.120;5.786;2023-08-12T15:01:24;21.40;99.90
33803;DHT22;20110;53.120;5.786;2023-08-12T15:03:53;21.20;99.90
33803;DHT22;20110;53.120;5.786;2023-08-12T15:06:21;21.20;99.90
33803;DHT22;20110;53.120;5.786;2023-08-12T15:08:46;21.20;99.90
33803;DHT22;20110;53.120;5.786;2023-08-12T15:11:12;20.80;99.90
33803;DHT22;20110;53.120;5.786;2023-08-12T15:13:38;20.80;99.90
33803;DHT22;20110;53.120;5.786;2023-08-12T15:16:05;20.60;99.90
33803;DHT22;20110;53.120;5.786;2023-08-12T15:18:30;20.90;99.90
33803;DHT22;20110;53.120;5.786;2023-08-12T15:20:56;20.80;99.90
33803;DHT22;20110;53.120;5.786;2023-08-12T15:23:22;20.80;99.90
33803;DHT22;20110;53.120;5.786;2023-08-12T15:25:48;20.80;99.90
33803;DHT22;20110;53.120;5.786;2023-08-12T15:28:14;20.50;99.90
33803;DHT22;20110;53.120;5.786;2023-08-12T15:30:40;20.60;99.90
33803;DHT22;20110;53.120;5.786;2023-08-12T15:33:05;20.60;99.90